Time;durP1;ratioP1;P1;durP2;ratioP2;P2;SDS_P1;SDS_P2;PMS_P1;PMS_P2;Temp;Humidity;BMP_temperature;BMP_pressure;BME280_temperature;BME280_humidity;BME280_pressure;Samples;Min_cycle;Max_cycle;Signal;HPM_P1;HPM_P2
2022/12/02 00:01:46;;;;;;;26.98;19.35;;;5.00;91.00;;;;;;4984983;28;20447;-75
2022/12/02 00:04:22;;;;;;;25.97;20.07;;;5.00;91.30;;;;;;4988285;28;20437;-75
2022/12/02 00:06:51;;;;;;;27.27;20.65;;;5.00;91.60;;;;;;4999382;28;20461;-76
2022/12/02 00:09:27;;;;;;;29.20;21.48;;;4.90;91.50;;;;;;4989838;28;20757;-75
2022/12/02 00:11:54;;;;;;;27.25;20.60;;;4.90;91.80;;;;;;4994485;28;20485;-75
2022/12/02 00:14:23;;;;;;;27.17;20.95;;;4.90;91.80;;;;;;4986986;28;20552;-75
2022/12/02 00:16:50;;;;;;;27.97;22.13;;;4.90;91.60;;;;;;4988386;28;20442;-75
2022/12/02 00:19:18;;;;;;;25.97;19.93;;;4.90;91.60;;;;;;4997787;28;20589;-76
2022/12/02 00:21:45;;;;;;;25.83;19.77;;;4.90;91.70;;;;;;4987184;28;20746;-75
2022/12/02 00:24:13;;;;;;;24.88;19.77;;;4.90;91.80;;;;;;4998273;28;20418;-77
2022/12/02 00:26:40;;;;;;;24.85;19.80;;;4.90;91.70;;;;;;4993081;28;20436;-76
2022/12/02 00:29:07;;;;;;;22.20;17.60;;;4.80;91.50;;;;;;4985739;28;20433;-75
2022/12/02 00:31:34;;;;;;;21.92;18.63;;;4.80;91.40;;;;;;4987907;28;20556;-74
2022/12/02 00:34:01;;;;;;;22.30;18.10;;;4.80;91.50;;;;;;5003613;28;20444;-77
2022/12/02 00:36:28;;;;;;;22.73;17.15;;;4.80;91.40;;;;;;4988528;28;20750;-76
2022/12/02 00:38:55;;;;;;;22.02;18.00;;;4.80;91.30;;;;;;4987626;28;20795;-76
2022/12/02 00:41:23;;;;;;;21.92;16.85;;;4.80;91.40;;;;;;4993951;28;20517;-75
2022/12/02 00:46:36;;;;;;;21.17;17.57;;;4.70;91.10;;;;;;5001946;28;20409;-74
2022/12/02 00:49:06;;;;;;;18.73;14.80;;;4.60;91.30;;;;;;5004711;28;20431;-76
2022/12/02 00:51:34;;;;;;;20.73;17.83;;;4.60;91.00;;;;;;5005206;28;20411;-75
2022/12/02 00:54:01;;;;;;;19.83;16.98;;;4.60;91.00;;;;;;4996594;28;20436;-76
2022/12/02 00:56:29;;;;;;;21.10;17.00;;;4.60;91.20;;;;;;4985563;28;21700;-75
2022/12/02 00:58:55;;;;;;;18.20;16.30;;;4.60;91.20;;;;;;4989994;28;20429;-75
2022/12/02 01:01:22;;;;;;;19.52;16.02;;;4.50;91.10;;;;;;5000373;28;20420;-75
2022/12/02 01:03:50;;;;;;;16.70;14.90;;;4.50;90.90;;;;;;4991152;28;20434;-75
2022/12/02 01:06:16;;;;;;;18.65;16.33;;;4.50;91.00;;;;;;4985829;28;20453;-75
2022/12/02 01:08:44;;;;;;;18.00;16.10;;;4.50;91.20;;;;;;4997070;28;20416;-75
2022/12/02 01:11:11;;;;;;;17.10;14.63;;;4.50;91.10;;;;;;4986767;28;20785;-75
2022/12/02 01:13:39;;;;;;;17.17;15.02;;;4.50;91.40;;;;;;4997057;28;20434;-75
2022/12/02 01:16:07;;;;;;;16.35;14.65;;;4.50;91.20;;;;;;4998463;28;20883;-75
2022/12/02 01:18:33;;;;;;;16.92;14.80;;;4.40;90.70;;;;;;4995108;28;20465;-76
2022/12/02 01:21:00;;;;;;;17.23;14.32;;;4.40;90.90;;;;;;4989418;28;20430;-75
2022/12/02 01:23:27;;;;;;;16.80;14.37;;;4.40;91.00;;;;;;4997135;28;20508;-75
2022/12/02 01:25:54;;;;;;;16.08;13.85;;;4.40;91.00;;;;;;4999019;28;20911;-75
2022/12/02 01:28:21;;;;;;;15.88;13.88;;;4.40;91.10;;;;;;4979879;28;20442;-75
2022/12/02 01:30:49;;;;;;;16.20;14.50;;;4.40;90.80;;;;;;4997541;28;20908;-76
2022/12/02 01:33:15;;;;;;;15.63;13.00;;;4.30;90.70;;;;;;4998962;28;20421;-76
2022/12/02 01:35:42;;;;;;;15.85;14.15;;;4.30;90.80;;;;;;4987550;28;20442;-75
2022/12/02 01:38:09;;;;;;;15.70;13.73;;;4.30;91.00;;;;;;4991713;28;20528;-77
2022/12/02 01:40:37;;;;;;;19.17;15.55;;;4.30;91.10;;;;;;5019044;28;20418;-75
2022/12/02 01:43:04;;;;;;;17.60;14.80;;;4.30;91.20;;;;;;5005131;28;20435;-75
2022/12/02 01:45:31;;;;;;;16.77;14.27;;;4.30;91.00;;;;;;4998219;28;20434;-75
2022/12/02 01:48:00;;;;;;;16.70;14.90;;;4.30;91.10;;;;;;4986374;28;20518;-75
2022/12/02 01:50:28;;;;;;;17.05;15.25;;;4.30;91.30;;;;;;4981021;28;20491;-76
2022/12/02 01:52:55;;;;;;;16.80;14.48;;;4.30;91.40;;;;;;4992587;28;20442;-75
2022/12/02 01:55:24;;;;;;;16.45;14.65;;;4.30;91.50;;;;;;4997088;28;20433;-75
2022/12/02 01:57:51;;;;;;;17.03;14.50;;;4.30;91.30;;;;;;4988069;28;20459;-75
2022/12/02 02:00:19;;;;;;;16.95;15.15;;;4.30;91.70;;;;;;4994731;28;20432;-76
2022/12/02 02:02:46;;;;;;;19.20;15.63;;;4.30;91.20;;;;;;4989242;28;20443;-76
2022/12/02 02:05:21;;;;;;;18.98;15.52;;;4.30;91.20;;;;;;4992406;28;20420;-75
2022/12/02 02:07:50;;;;;;;16.67;14.73;;;4.30;91.20;;;;;;4991469;28;20442;-75
2022/12/02 02:10:18;;;;;;;16.92;14.13;;;4.30;91.20;;;;;;4988025;28;20434;-75
2022/12/02 02:12:45;;;;;;;18.08;16.17;;;4.30;91.30;;;;;;4984712;28;20451;-75
2022/12/02 02:15:14;;;;;;;16.83;14.60;;;4.30;91.40;;;;;;4986896;28;20813;-76
2022/12/02 02:17:41;;;;;;;18.57;16.30;;;4.30;91.20;;;;;;4994289;28;20528;-75
2022/12/02 02:20:11;;;;;;;18.40;14.98;;;4.30;91.20;;;;;;4989611;28;20432;-75
2022/12/02 02:22:42;;;;;;;17.58;15.68;;;4.30;91.10;;;;;;4988067;28;20443;-75
2022/12/02 02:25:13;;;;;;;16.10;14.40;;;4.30;91.20;;;;;;4995117;28;20441;-76
2022/12/02 02:27:40;;;;;;;17.60;14.98;;;4.30;91.40;;;;;;4994266;28;20923;-76
2022/12/02 02:30:08;;;;;;;17.95;16.00;;;4.40;91.40;;;;;;4996336;28;20452;-75
2022/12/02 02:32:35;;;;;;;16.58;14.48;;;4.40;91.10;;;;;;4999684;28;20424;-76
2022/12/02 02:35:02;;;;;;;17.35;14.55;;;4.30;91.00;;;;;;4987952;28;20438;-75
2022/12/02 02:37:31;;;;;;;18.92;15.02;;;4.40;91.00;;;;;;4993465;28;20445;-76
2022/12/02 02:39:58;;;;;;;17.40;15.60;;;4.40;91.10;;;;;;5007955;28;20410;-77
2022/12/02 02:42:26;;;;;;;17.47;15.33;;;4.30;91.20;;;;;;5010732;28;20428;-76
2022/12/02 02:44:54;;;;;;;17.20;14.40;;;4.30;91.40;;;;;;4985044;28;20430;-75
2022/12/02 02:47:21;;;;;;;16.13;14.00;;;4.30;91.20;;;;;;4989435;28;20460;-75
2022/12/02 02:49:48;;;;;;;16.90;14.88;;;4.40;91.30;;;;;;4989753;28;20438;-75
2022/12/02 02:52:15;;;;;;;17.85;14.02;;;4.40;91.10;;;;;;4984678;28;20491;-75
2022/12/02 02:54:41;;;;;;;17.05;13.60;;;4.30;90.90;;;;;;4983119;28;20434;-76
2022/12/02 02:57:08;;;;;;;19.40;15.50;;;4.30;91.10;;;;;;4990571;28;20444;-75
2022/12/02 02:59:38;;;;;;;16.90;14.20;;;4.30;91.30;;;;;;4994128;28;21317;-75
2022/12/02 03:02:10;;;;;;;17.05;14.25;;;4.30;91.20;;;;;;4994171;28;20433;-76
2022/12/02 03:04:37;;;;;;;16.17;14.55;;;4.30;91.20;;;;;;4986174;28;20436;-75
2022/12/02 03:07:04;;;;;;;18.13;15.30;;;4.30;91.50;;;;;;4987820;28;20928;-75
2022/12/02 03:09:31;;;;;;;18.63;15.73;;;4.40;91.40;;;;;;4992622;28;20422;-75
2022/12/02 03:11:59;;;;;;;17.67;14.90;;;4.40;91.50;;;;;;4984328;28;20465;-76
2022/12/02 03:14:27;;;;;;;19.70;15.07;;;4.40;91.60;;;;;;4985547;28;20434;-75
2022/12/02 03:16:56;;;;;;;19.10;15.80;;;4.40;91.40;;;;;;4984986;28;20495;-75
2022/12/02 03:19:23;;;;;;;16.90;14.98;;;4.40;91.40;;;;;;4985202;28;20503;-75
2022/12/02 03:21:50;;;;;;;18.60;15.53;;;4.40;91.40;;;;;;4986232;28;20553;-74
2022/12/02 03:24:17;;;;;;;20.25;15.90;;;4.40;91.40;;;;;;4996732;28;20437;-75
2022/12/02 03:26:45;;;;;;;18.40;15.38;;;4.40;91.60;;;;;;4987238;28;21030;-75
2022/12/02 03:29:14;;;;;;;19.20;16.50;;;4.40;91.60;;;;;;4989616;28;20521;-74
2022/12/02 03:31:41;;;;;;;17.20;14.10;;;4.40;91.70;;;;;;4990355;28;20517;-75
2022/12/02 03:34:10;;;;;;;18.08;14.98;;;4.40;91.60;;;;;;4982148;28;20771;-77
2022/12/02 03:36:38;;;;;;;19.70;15.63;;;4.40;91.50;;;;;;4978867;28;20461;-77
2022/12/02 03:39:05;;;;;;;18.65;15.82;;;4.40;91.50;;;;;;4991248;28;20438;-77
2022/12/02 03:41:32;;;;;;;19.03;15.50;;;4.40;91.50;;;;;;5011507;28;20509;-77
2022/12/02 03:43:59;;;;;;;19.55;15.90;;;4.40;91.50;;;;;;5013664;28;20490;-77
2022/12/02 03:46:27;;;;;;;19.83;15.23;;;4.40;91.70;;;;;;4984837;28;20443;-77
2022/12/02 03:48:55;;;;;;;18.60;15.90;;;4.40;91.70;;;;;;4983630;28;20489;-77
2022/12/02 03:51:23;;;;;;;19.20;15.80;;;4.40;91.70;;;;;;4988179;28;21166;-77
2022/12/02 03:53:50;;;;;;;18.48;15.38;;;4.40;91.70;;;;;;4993106;28;20424;-77
2022/12/02 03:56:17;;;;;;;17.63;14.75;;;4.40;91.70;;;;;;4993907;28;20447;-77
2022/12/02 03:58:47;;;;;;;19.40;16.30;;;4.40;91.80;;;;;;4995898;28;20436;-77
2022/12/02 04:01:14;;;;;;;19.48;16.65;;;4.40;91.80;;;;;;4978533;28;20446;-77
2022/12/02 04:03:41;;;;;;;18.05;15.68;;;4.40;91.70;;;;;;4986063;28;20434;-77
2022/12/02 04:06:08;;;;;;;19.60;15.50;;;4.40;91.50;;;;;;4986611;28;20441;-77
2022/12/02 04:08:36;;;;;;;18.10;15.57;;;4.40;91.50;;;;;;4998542;28;20438;-77
2022/12/02 04:11:04;;;;;;;19.02;14.88;;;4.40;91.60;;;;;;4997811;28;20883;-77
2022/12/02 04:13:31;;;;;;;20.20;15.77;;;4.40;91.70;;;;;;4983440;28;20469;-77
2022/12/02 04:15:57;;;;;;;19.90;16.25;;;4.30;91.80;;;;;;4978211;28;20432;-77
2022/12/02 04:18:24;;;;;;;20.48;16.80;;;4.30;91.80;;;;;;4981033;28;20441;-77
2022/12/02 04:20:51;;;;;;;20.00;15.43;;;4.30;91.90;;;;;;4988182;28;20434;-76
2022/12/02 04:23:18;;;;;;;20.70;16.10;;;4.30;91.80;;;;;;4997136;28;20422;-76
2022/12/02 04:25:46;;;;;;;19.15;15.07;;;4.30;91.90;;;;;;4996565;28;20430;-77
2022/12/02 04:28:13;;;;;;;18.60;15.63;;;4.30;92.00;;;;;;4986455;28;20440;-77
2022/12/02 04:30:40;;;;;;;19.65;16.50;;;4.30;92.10;;;;;;5000980;28;20419;-77
2022/12/02 04:33:07;;;;;;;21.63;17.38;;;4.40;92.10;;;;;;5044964;22;21179;-70
2022/12/02 04:35:33;;;;;;;21.30;18.55;;;4.40;92.20;;;;;;5039979;28;20448;-69
2022/12/02 04:38:00;;;;;;;21.98;17.50;;;4.40;92.40;;;;;;5047684;28;20433;-71
2022/12/02 04:40:27;;;;;;;21.75;18.38;;;4.40;92.10;;;;;;5050203;28;20418;-70
2022/12/02 04:42:56;;;;;;;21.95;18.63;;;4.40;92.00;;;;;;5026408;28;20442;-71
2022/12/02 04:45:22;;;;;;;22.45;16.92;;;4.40;91.90;;;;;;5027778;28;20434;-70
2022/12/02 04:47:49;;;;;;;23.20;18.50;;;4.40;91.80;;;;;;5028518;28;20446;-70
2022/12/02 04:50:16;;;;;;;22.55;17.63;;;4.40;91.90;;;;;;5027097;28;20442;-68
2022/12/02 04:52:43;;;;;;;22.80;18.30;;;4.30;92.10;;;;;;5029806;28;20782;-71
2022/12/02 04:55:10;;;;;;;23.00;17.30;;;4.30;92.10;;;;;;5030156;28;20937;-70
2022/12/02 04:57:36;;;;;;;23.83;18.23;;;4.30;92.20;;;;;;5023593;28;20440;-70
2022/12/02 05:00:06;;;;;;;20.27;17.13;;;4.30;92.10;;;;;;5019910;28;20444;-70
2022/12/02 05:02:34;;;;;;;21.73;16.90;;;4.30;92.20;;;;;;5028079;28;20511;-70
2022/12/02 05:05:00;;;;;;;23.05;18.67;;;4.30;92.30;;;;;;5029308;28;20427;-71
2022/12/02 05:07:27;;;;;;;22.20;17.50;;;4.30;92.10;;;;;;5022995;28;20476;-70
2022/12/02 05:09:54;;;;;;;23.77;18.52;;;4.30;92.10;;;;;;5025812;28;20434;-70
2022/12/02 05:12:23;;;;;;;22.40;18.17;;;4.30;92.10;;;;;;5022840;28;20461;-69
2022/12/02 05:14:50;;;;;;;21.83;17.45;;;4.30;92.20;;;;;;5020560;28;21054;-70
2022/12/02 05:17:18;;;;;;;20.60;17.17;;;4.30;92.10;;;;;;5024375;28;20921;-71
2022/12/02 05:19:45;;;;;;;23.20;18.07;;;4.30;92.10;;;;;;5025855;28;20478;-70
2022/12/02 05:22:12;;;;;;;24.17;19.58;;;4.30;92.30;;;;;;5028298;28;20422;-70
2022/12/02 05:24:39;;;;;;;23.80;17.98;;;4.30;92.20;;;;;;5026370;28;20943;-69
2022/12/02 05:27:06;;;;;;;23.85;19.30;;;4.40;92.10;;;;;;5025860;28;20435;-70
2022/12/02 05:29:32;;;;;;;21.67;17.60;;;4.30;92.40;;;;;;5020217;28;20439;-70
2022/12/02 05:31:59;;;;;;;23.02;17.13;;;4.30;92.30;;;;;;5024509;28;20438;-69
2022/12/02 05:34:27;;;;;;;29.45;18.85;;;4.30;92.30;;;;;;5024869;28;20459;-69
2022/12/02 05:36:54;;;;;;;24.40;18.13;;;4.30;92.40;;;;;;5026547;28;20431;-71
2022/12/02 05:39:21;;;;;;;22.90;17.93;;;4.30;92.40;;;;;;5027798;28;20418;-68
2022/12/02 05:41:48;;;;;;;25.63;19.25;;;4.30;92.50;;;;;;5026967;28;20438;-72
2022/12/02 05:44:21;;;;;;;23.40;18.33;;;4.30;92.50;;;;;;5019930;28;20431;-69
2022/12/02 05:46:49;;;;;;;26.15;19.95;;;4.30;92.60;;;;;;5026394;28;20423;-68
2022/12/02 05:49:18;;;;;;;23.27;18.40;;;4.30;92.60;;;;;;5027636;28;20502;-69
2022/12/02 05:51:47;;;;;;;21.85;17.08;;;4.30;92.60;;;;;;5028192;28;20496;-69
2022/12/02 05:54:20;;;;;;;23.25;18.77;;;4.30;92.50;;;;;;5019067;28;20420;-71
2022/12/02 05:56:47;;;;;;;25.45;18.98;;;4.30;92.70;;;;;;5022893;28;20426;-66
2022/12/02 05:59:16;;;;;;;25.05;18.13;;;4.30;92.80;;;;;;5022200;28;20430;-69
2022/12/02 06:01:46;;;;;;;23.73;17.53;;;4.30;92.60;;;;;;5018769;28;20433;-70
2022/12/02 06:04:15;;;;;;;21.27;16.48;;;4.30;92.70;;;;;;5024393;28;20426;-70
2022/12/02 06:06:42;;;;;;;22.35;16.40;;;4.30;92.70;;;;;;5020107;28;20429;-71
2022/12/02 06:09:14;;;;;;;22.67;16.63;;;4.30;92.70;;;;;;5026953;28;20893;-70
2022/12/02 06:11:41;;;;;;;20.40;15.50;;;4.30;92.70;;;;;;5019368;28;20430;-67
2022/12/02 06:14:14;;;;;;;21.90;16.40;;;4.20;92.60;;;;;;5022651;28;20442;-68
2022/12/02 06:16:43;;;;;;;23.67;16.73;;;4.30;92.60;;;;;;5023752;28;20530;-67
2022/12/02 06:19:21;;;;;;;24.98;18.40;;;4.30;92.70;;;;;;5028917;28;20419;-68
2022/12/02 06:21:48;;;;;;;24.87;18.87;;;4.30;92.70;;;;;;5025465;28;20430;-70
2022/12/02 06:24:16;;;;;;;24.40;18.80;;;4.30;92.80;;;;;;5023327;28;20434;-70
2022/12/02 06:26:43;;;;;;;26.55;19.90;;;4.30;92.90;;;;;;5018280;28;20432;-69
2022/12/02 06:29:15;;;;;;;24.45;18.90;;;4.30;92.90;;;;;;5023925;28;20434;-69
2022/12/02 06:31:43;;;;;;;27.35;19.00;;;4.30;92.70;;;;;;5022244;28;20435;-69
2022/12/02 06:34:23;;;;;;;26.02;19.83;;;4.30;92.80;;;;;;5021403;28;21102;-68
2022/12/02 06:36:50;;;;;;;28.20;19.37;;;4.30;92.90;;;;;;5015817;28;20432;-69
2022/12/02 06:39:22;;;;;;;28.10;21.15;;;4.30;92.90;;;;;;5023749;28;20435;-70
2022/12/02 06:41:49;;;;;;;28.00;20.60;;;4.30;92.90;;;;;;5023216;28;20992;-69
2022/12/02 06:47:52;;;;;;;27.73;19.17;;;4.30;93.00;;;;;;5027598;28;20422;-69
2022/12/02 06:50:28;;;;;;;29.60;21.42;;;4.30;93.00;;;;;;4952135;28;20926;-70
2022/12/02 06:53:02;;;;;;;28.88;22.27;;;4.30;93.30;;;;;;4941684;28;21124;-70
2022/12/02 06:55:34;;;;;;;27.13;19.90;;;4.30;93.20;;;;;;4984223;28;20439;-70
2022/12/02 06:58:15;;;;;;;30.02;21.45;;;4.40;93.20;;;;;;5025675;28;20440;-70
2022/12/02 07:00:43;;;;;;;29.80;21.35;;;4.40;93.00;;;;;;5027039;28;20778;-69
2022/12/02 07:03:22;;;;;;;30.50;20.85;;;4.40;93.00;;;;;;5019412;28;20964;-70
2022/12/02 07:05:48;;;;;;;30.17;21.43;;;4.40;93.20;;;;;;5026917;28;20520;-69
2022/12/02 07:08:15;;;;;;;29.75;21.30;;;4.40;93.40;;;;;;5023392;28;20431;-68
2022/12/02 07:10:43;;;;;;;35.13;22.70;;;4.40;93.60;;;;;;5020924;28;20826;-69
2022/12/02 07:13:16;;;;;;;33.65;23.50;;;4.40;93.90;;;;;;5015098;28;20439;-70
2022/12/02 07:15:43;;;;;;;35.05;23.40;;;4.30;94.50;;;;;;5018260;28;20431;-70
2022/12/02 07:18:13;;;;;;;34.83;23.50;;;4.40;94.70;;;;;;5019983;28;20439;-69
2022/12/02 07:20:42;;;;;;;33.05;22.58;;;4.40;95.00;;;;;;5026915;28;20434;-69
2022/12/02 07:23:16;;;;;;;33.17;21.85;;;4.40;95.30;;;;;;5025664;28;20445;-70
2022/12/02 07:25:46;;;;;;;36.60;25.08;;;4.40;95.60;;;;;;5027242;28;20921;-68
2022/12/02 07:28:26;;;;;;;35.08;23.00;;;4.30;95.60;;;;;;5021753;28;21011;-70
2022/12/02 07:30:59;;;;;;;31.10;21.50;;;4.30;96.00;;;;;;5024249;28;20417;-68
2022/12/02 07:33:26;;;;;;;35.63;22.92;;;4.30;96.50;;;;;;5025647;28;20419;-71
2022/12/02 07:35:53;;;;;;;41.45;24.98;;;4.30;96.60;;;;;;5026228;28;20502;-68
2022/12/02 07:38:20;;;;;;;34.65;22.63;;;4.20;97.20;;;;;;5023519;28;20439;-70
2022/12/02 07:40:48;;;;;;;33.00;23.00;;;4.20;97.50;;;;;;5026148;28;20441;-70
2022/12/02 07:43:15;;;;;;;35.70;23.20;;;4.20;97.70;;;;;;5018492;28;20524;-71
2022/12/02 07:45:41;;;;;;;38.35;22.83;;;4.20;97.70;;;;;;5029379;28;20427;-70
2022/12/02 07:48:08;;;;;;;38.60;25.67;;;4.10;98.10;;;;;;5028226;28;20422;-71
2022/12/02 07:50:36;;;;;;;34.22;22.90;;;4.10;98.50;;;;;;5023786;28;20968;-71
2022/12/02 07:53:02;;;;;;;32.05;22.15;;;4.00;98.80;;;;;;5027658;28;20450;-72
2022/12/02 07:55:29;;;;;;;37.50;23.83;;;4.00;99.10;;;;;;5028169;28;20924;-70
2022/12/02 07:57:58;;;;;;;37.53;22.92;;;4.00;99.40;;;;;;5021647;28;20439;-71
2022/12/02 08:00:24;;;;;;;38.13;22.58;;;4.00;99.70;;;;;;5029662;28;20790;-71
2022/12/02 08:02:51;;;;;;;34.47;22.38;;;4.00;99.90;;;;;;5025592;28;20443;-71
2022/12/02 08:05:18;;;;;;;33.45;23.00;;;4.00;99.90;;;;;;5023408;28;20937;-70
2022/12/02 08:07:45;;;;;;;37.13;23.83;;;4.00;99.90;;;;;;5027908;28;20442;-71
2022/12/02 08:10:12;;;;;;;36.03;24.63;;;4.00;99.90;;;;;;5022670;28;20481;-71
2022/12/02 08:12:39;;;;;;;36.88;24.42;;;4.00;99.90;;;;;;5016419;28;20435;-71
2022/12/02 08:15:09;;;;;;;36.55;23.10;;;4.00;99.90;;;;;;5013906;28;20429;-70
2022/12/02 08:17:36;;;;;;;39.05;25.25;;;4.10;99.90;;;;;;5023213;28;20431;-69
2022/12/02 08:20:04;;;;;;;40.75;25.15;;;4.10;99.90;;;;;;5028370;28;21239;-70
2022/12/02 08:22:31;;;;;;;39.97;25.90;;;4.10;99.90;;;;;;5027307;28;20437;-70
2022/12/02 08:24:58;;;;;;;42.25;27.55;;;4.10;99.90;;;;;;5029601;28;20442;-70
2022/12/02 08:27:25;;;;;;;40.47;25.65;;;4.10;99.90;;;;;;5028618;28;20438;-70
2022/12/02 08:29:52;;;;;;;42.00;26.23;;;4.10;99.90;;;;;;5029332;28;20435;-70
2022/12/02 08:32:20;;;;;;;37.67;25.42;;;4.20;99.90;;;;;;5028469;28;20438;-70
2022/12/02 08:34:47;;;;;;;41.58;26.80;;;4.10;99.90;;;;;;5030220;28;20415;-69
2022/12/02 08:37:15;;;;;;;41.47;27.00;;;4.10;99.90;;;;;;5027878;28;20435;-70
2022/12/02 08:39:42;;;;;;;42.40;26.30;;;4.10;99.90;;;;;;5024314;28;20453;-71
2022/12/02 08:42:09;;;;;;;41.50;26.20;;;4.20;99.90;;;;;;5025908;28;20476;-70
2022/12/02 08:44:36;;;;;;;43.65;26.75;;;4.20;99.90;;;;;;5013722;28;20431;-68
2022/12/02 08:47:03;;;;;;;45.40;26.63;;;4.20;99.90;;;;;;5021489;28;20423;-69
2022/12/02 08:49:31;;;;;;;41.17;25.80;;;4.20;99.90;;;;;;5022617;28;20436;-70
2022/12/02 08:51:58;;;;;;;44.60;26.75;;;4.20;99.90;;;;;;5018537;28;20436;-74
2022/12/02 08:54:25;;;;;;;44.10;28.60;;;4.20;99.90;;;;;;5024525;28;20457;-69
2022/12/02 08:56:52;;;;;;;43.17;26.38;;;4.20;99.90;;;;;;5024558;28;20431;-71
2022/12/02 08:59:19;;;;;;;42.85;27.77;;;4.30;99.90;;;;;;5027915;28;20434;-70
2022/12/02 09:01:45;;;;;;;42.42;27.95;;;4.30;99.90;;;;;;5027777;28;20431;-70
2022/12/02 09:04:12;;;;;;;43.22;27.00;;;4.30;99.90;;;;;;5024629;28;20963;-70
2022/12/02 09:06:41;;;;;;;39.78;25.35;;;4.40;99.90;;;;;;5030936;28;20435;-69
2022/12/02 09:09:08;;;;;;;39.78;26.27;;;4.40;99.90;;;;;;5027095;28;20427;-74
2022/12/02 09:11:34;;;;;;;40.33;25.67;;;4.40;99.90;;;;;;5022471;28;20436;-71
2022/12/02 09:14:01;;;;;;;38.77;26.50;;;4.30;99.90;;;;;;5022730;28;20435;-71
2022/12/02 09:16:28;;;;;;;42.03;26.30;;;4.30;99.90;;;;;;5022446;28;20428;-70
2022/12/02 09:18:56;;;;;;;42.13;25.67;;;4.40;99.90;;;;;;5022581;28;20770;-70
2022/12/02 09:21:23;;;;;;;40.67;25.60;;;4.40;99.90;;;;;;5027972;28;20801;-70
2022/12/02 09:23:51;;;;;;;38.75;24.60;;;4.40;99.90;;;;;;5021002;28;20435;-71
2022/12/02 09:26:18;;;;;;;37.05;25.80;;;4.40;99.90;;;;;;5024613;28;20431;-70
2022/12/02 09:28:45;;;;;;;36.42;24.23;;;4.40;99.90;;;;;;5018951;28;21100;-70
2022/12/02 09:31:12;;;;;;;44.00;25.33;;;4.40;99.90;;;;;;5021512;28;20431;-71
2022/12/02 09:33:39;;;;;;;40.17;25.05;;;4.30;99.90;;;;;;5023713;28;20534;-69
2022/12/02 09:36:07;;;;;;;45.20;27.65;;;4.40;99.90;;;;;;5013541;28;20443;-70
2022/12/02 09:38:33;;;;;;;41.78;25.40;;;4.40;99.90;;;;;;5014951;28;20432;-69
2022/12/02 09:41:02;;;;;;;41.90;25.80;;;4.40;99.90;;;;;;5011050;28;20437;-70
2022/12/02 09:43:29;;;;;;;42.10;27.50;;;4.40;99.90;;;;;;5015081;28;20438;-70
2022/12/02 09:45:56;;;;;;;41.00;27.17;;;4.50;99.90;;;;;;5022831;28;20439;-70
2022/12/02 09:48:23;;;;;;;41.80;25.13;;;4.50;99.90;;;;;;5020382;28;20439;-69
2022/12/02 09:50:51;;;;;;;42.58;27.85;;;4.50;99.90;;;;;;5022035;28;21123;-70
2022/12/02 09:53:20;;;;;;;47.85;27.33;;;4.50;99.90;;;;;;5009569;28;20424;-71
2022/12/02 09:55:46;;;;;;;43.22;26.17;;;4.50;99.90;;;;;;5015123;28;20455;-72
2022/12/02 09:58:16;;;;;;;40.92;25.17;;;4.50;99.90;;;;;;5018649;28;20431;-73
2022/12/02 10:00:44;;;;;;;43.08;27.00;;;4.50;99.90;;;;;;5020218;28;20471;-69
2022/12/02 10:03:14;;;;;;;44.97;26.92;;;4.60;99.90;;;;;;5023464;28;20897;-70
2022/12/02 10:05:41;;;;;;;40.35;27.30;;;4.50;99.90;;;;;;5023550;28;20439;-74
2022/12/02 10:08:15;;;;;;;38.70;24.13;;;4.60;99.90;;;;;;5022953;28;21123;-74
2022/12/02 10:10:43;;;;;;;41.45;26.02;;;4.60;99.90;;;;;;5022824;28;20991;-72
2022/12/02 10:13:12;;;;;;;38.53;26.42;;;4.60;99.90;;;;;;5020290;28;20498;-73
2022/12/02 10:15:41;;;;;;;37.38;26.25;;;4.60;99.90;;;;;;5027101;28;20443;-72
2022/12/02 10:18:12;;;;;;;36.90;25.75;;;4.60;99.90;;;;;;5017842;28;20441;-74
2022/12/02 10:20:39;;;;;;;39.47;25.90;;;4.70;99.90;;;;;;5023791;28;20418;-72
2022/12/02 10:23:13;;;;;;;38.97;26.15;;;4.70;99.90;;;;;;5027070;28;21315;-74
2022/12/02 10:25:41;;;;;;;38.75;24.85;;;4.70;99.90;;;;;;5025151;28;20435;-75
2022/12/02 10:28:20;;;;;;;37.92;25.85;;;4.70;99.90;;;;;;5020914;28;20421;-74
2022/12/02 10:30:52;;;;;;;35.95;24.13;;;4.80;99.90;;;;;;5024446;28;20502;-73
2022/12/02 10:33:22;;;;;;;36.90;25.00;;;4.80;99.80;;;;;;5026938;28;20982;-72
2022/12/02 10:35:51;;;;;;;37.17;24.42;;;4.80;99.70;;;;;;5021925;28;20431;-71
2022/12/02 10:38:33;;;;;;;35.20;24.55;;;4.80;99.70;;;;;;5015338;28;20432;-72
2022/12/02 10:41:18;;;;;;;35.87;24.30;;;4.80;99.70;;;;;;5023284;28;20431;-73
2022/12/02 10:44:00;;;;;;;38.15;24.58;;;4.80;99.60;;;;;;5023660;28;20431;-73
2022/12/02 10:46:28;;;;;;;36.40;25.02;;;4.80;99.50;;;;;;5023377;28;20813;-74
2022/12/02 10:48:55;;;;;;;37.10;24.33;;;4.80;99.40;;;;;;5019563;28;20924;-73
2022/12/02 10:51:22;;;;;;;35.95;24.08;;;4.90;99.30;;;;;;5017123;28;20435;-73
2022/12/02 10:53:55;;;;;;;34.35;23.42;;;4.90;99.20;;;;;;5024667;28;20438;-74
2022/12/02 10:56:23;;;;;;;30.58;22.20;;;4.90;99.20;;;;;;5019886;28;20462;-74
2022/12/02 10:58:51;;;;;;;34.88;23.58;;;4.90;99.40;;;;;;5023738;28;21133;-73
2022/12/02 11:01:19;;;;;;;34.05;23.40;;;4.90;98.90;;;;;;5025296;28;20431;-73
2022/12/02 11:03:48;;;;;;;33.55;23.10;;;4.90;99.10;;;;;;5025631;28;20441;-74
2022/12/02 11:06:17;;;;;;;34.25;25.40;;;4.90;99.20;;;;;;5018856;28;20419;-73
2022/12/02 11:08:44;;;;;;;36.65;23.98;;;4.90;99.30;;;;;;5024194;28;20430;-73
2022/12/02 11:11:13;;;;;;;32.40;23.80;;;5.00;99.20;;;;;;5018712;28;20435;-74
2022/12/02 11:13:59;;;;;;;29.50;22.30;;;5.00;99.00;;;;;;5021179;28;20801;-72
2022/12/02 11:17:03;;;;;;;32.58;23.92;;;5.00;98.80;;;;;;5025963;28;20435;-73
2022/12/02 11:19:45;;;;;;;31.65;22.52;;;5.00;98.60;;;;;;5026952;28;20509;-73
2022/12/02 11:23:03;;;;;;;31.63;22.08;;;5.00;98.30;;;;;;5016520;28;20431;-73
2022/12/02 11:25:54;;;;;;;28.90;21.17;;;5.10;98.20;;;;;;5018164;28;20459;-72
2022/12/02 11:28:47;;;;;;;26.40;20.13;;;5.10;97.70;;;;;;5022759;28;20431;-73
2022/12/02 11:31:23;;;;;;;27.02;20.52;;;5.10;97.50;;;;;;5018589;28;20500;-72
2022/12/02 11:34:30;;;;;;;30.83;21.25;;;5.10;98.00;;;;;;5025510;28;20445;-73
2022/12/02 11:37:47;;;;;;;27.30;21.83;;;5.10;97.60;;;;;;5021871;28;20437;-73
2022/12/02 11:40:57;;;;;;;29.30;21.95;;;5.10;97.80;;;;;;5013103;28;20446;-73
2022/12/02 11:43:54;;;;;;;26.63;22.08;;;5.20;97.60;;;;;;5022493;28;20430;-71
2022/12/02 11:46:22;;;;;;;27.70;22.45;;;5.20;97.50;;;;;;5019748;28;20435;-71
2022/12/02 11:48:52;;;;;;;27.42;21.60;;;5.20;97.20;;;;;;5026320;28;20442;-72
2022/12/02 11:51:31;;;;;;;25.52;20.35;;;5.10;97.10;;;;;;5022853;28;20824;-72
2022/12/02 11:53:59;;;;;;;27.45;21.60;;;5.10;97.00;;;;;;5015325;28;20428;-72
2022/12/02 11:56:30;;;;;;;28.45;21.05;;;5.10;96.70;;;;;;5020790;28;21020;-72
2022/12/02 11:58:59;;;;;;;28.75;21.73;;;5.10;96.60;;;;;;5021676;28;20439;-71
2022/12/02 12:01:25;;;;;;;31.52;22.02;;;5.10;96.50;;;;;;5026519;28;20430;-71
2022/12/02 12:03:53;;;;;;;25.85;20.67;;;5.10;96.70;;;;;;5030657;28;20419;-72
2022/12/02 12:06:21;;;;;;;27.20;22.05;;;5.10;96.80;;;;;;5022686;28;20439;-71
2022/12/02 12:08:51;;;;;;;25.63;22.00;;;5.10;96.30;;;;;;5020237;28;20439;-71
2022/12/02 12:11:21;;;;;;;28.20;21.67;;;5.10;96.00;;;;;;5026020;28;20439;-71
2022/12/02 12:14:05;;;;;;;26.85;21.25;;;5.10;96.10;;;;;;5025084;28;20435;-71
2022/12/02 12:16:33;;;;;;;26.75;21.70;;;5.10;96.00;;;;;;5020247;28;20438;-70
2022/12/02 12:19:00;;;;;;;27.50;21.95;;;5.10;96.40;;;;;;5025831;28;20435;-71
2022/12/02 12:21:44;;;;;;;25.40;20.27;;;5.10;96.60;;;;;;5026476;28;20791;-70
2022/12/02 12:24:29;;;;;;;23.58;19.23;;;5.10;96.60;;;;;;5022663;28;20438;-71
2022/12/02 12:26:57;;;;;;;24.77;20.93;;;5.10;96.40;;;;;;5021907;28;21467;-71
2022/12/02 12:29:27;;;;;;;26.23;22.20;;;5.10;96.50;;;;;;5020949;28;20826;-70
2022/12/02 12:31:54;;;;;;;27.55;21.65;;;5.10;96.40;;;;;;5028416;28;20443;-69
2022/12/02 12:34:21;;;;;;;26.27;22.00;;;5.10;96.40;;;;;;5028762;28;20937;-70
2022/12/02 12:36:47;;;;;;;26.92;21.42;;;5.20;96.20;;;;;;5029846;28;20434;-69
2022/12/02 12:39:15;;;;;;;25.67;21.45;;;5.20;96.10;;;;;;5028238;28;20805;-70
2022/12/02 12:41:42;;;;;;;24.67;21.20;;;5.20;96.00;;;;;;5029535;28;21045;-69
2022/12/02 12:44:09;;;;;;;25.77;21.92;;;5.20;95.80;;;;;;5028110;28;20438;-70
2022/12/02 12:46:37;;;;;;;23.90;20.75;;;5.20;95.80;;;;;;5025161;28;20809;-71
2022/12/02 12:49:04;;;;;;;27.48;22.73;;;5.20;95.50;;;;;;5028828;28;20435;-71
2022/12/02 12:51:31;;;;;;;24.95;22.10;;;5.20;95.70;;;;;;5027997;28;20442;-71
2022/12/02 12:53:57;;;;;;;26.27;21.45;;;5.20;95.80;;;;;;5028328;28;20449;-70